Santiago Peralta

Recruteur - River Plate
29 Oct 2028
Dimanche
Processus

Personnalité

Adaptabilité (17) Ambition (19) Controverse (19) Loyauté (4) Pression (10) Professionnalisme (8) Sportivité (6) Tempérament (9)

Profil

Style d'entraînement Démocratique
Diplôme National B
Détermination 6
Gestion des joueurs 8
Motivation 8
Discipline 6
Satisfaction professionnelle
100%
Fatigue
0%
Rôle Recruteur
Salaire 15.2K p/s
Contrat 14.03.2030

Performance

Comportement Bon
Efficacité de l'entraînement
30%
Développement des joueurs
40%
Prévention des blessures
55%
Mise en place tactique
50%

Événements récents

A évalué un joueur maintenant
A évalué un joueur maintenant
A évalué un joueur maintenant
A évalué un joueur maintenant
A évalué un joueur maintenant
A évalué un joueur maintenant
A évalué un joueur maintenant
A évalué un joueur maintenant

Suivi en cours

313
Joueur Club Statut Capacité Confiance Observé Dernière observation Dernier vote
Ryan Kavuma-McQueen Accrington Stanley Actif 122 / 121 40% 4 28.10.2028 -
Celías Ingenthron Platense Actif 116 / 125 40% 11 28.10.2028 -
Alejandro Tapia Central Norte Actif 86 / 93 40% 3 28.10.2028 -
Nicolás Azambuja Nottingham Forest Actif 114 / 131 40% 3 28.10.2028 -
Máximo Magnoli Ferro Carril Oeste Actif 101 / 104 40% 2 28.10.2028 -
Andrés Dávila Independiente Medellin Actif 93 / 106 40% 3 28.10.2028 -
Tahiel Peralta Racing Club Actif 111 / 115 40% 2 28.10.2028 -
Mauro Matorras Central Norte Actif 89 / 102 40% 5 28.10.2028 -
Mateo Aguiar Tigre Actif 111 / 116 40% 1 28.10.2028 -
Máximo Munarriz San Telmo Négociation 105 / 105 40% 4 27.10.2028 -
Luka Andrade Montevideo City Torque Actif 105 / 111 40% 11 27.10.2028 -
Aaron Branca Artigas Actif 82 / 87 40% 7 27.10.2028 -
Markus Wæhler Lillestrom Actif 111 / 108 40% 5 27.10.2028 -
Alejandro Almaraz NK Celje Actif 113 / 119 40% 3 27.10.2028 -
Leonel Flores Boca Juniors Actif 109 / 113 40% 1 27.10.2028 -
Christian Silva Santiago Wanderers Actif 85 / 90 40% 10 26.10.2028 -
Diego Robles Union Espanola Actif 86 / 85 40% 5 26.10.2028 -
Santiago Cuellar Central Norte Actif 89 / 100 40% 4 26.10.2028 -
Mateo Arrieta All Boys Actif 83 / 92 40% 2 26.10.2028 -
Emiliano Zambrano Cortulua Actif 92 / 105 40% 2 26.10.2028 -
Joel Ezra Enyimba Actif 101 / 103 40% 7 25.10.2028 -
Felipe Varela Trujillanos Actif 95 / 96 40% 4 25.10.2028 -
Mateo Lizondo Colón Actif 95 / 105 40% 7 25.10.2028 -
Juan Ruíz Díaz Los Andes Actif 88 / 87 40% 4 25.10.2028 -
Kparobo Arierhi Lillestrom Actif 106 / 117 40% 3 25.10.2028 -
Alan Torterolo Defensor Sporting Actif 96 / 100 40% 4 25.10.2028 -
Tiziano Cabrera Central Norte Actif 90 / 90 40% 2 25.10.2028 -
Melvin Koliqi Atvidaberg Actif 86 / 92 40% 1 25.10.2028 -
Sergio Martínez Real Madrid Actif 117 / 128 40% 1 25.10.2028 -
Aytor Herrera Mineros de Guayana Actif 89 / 92 40% 8 24.10.2028 -
Gideon Manaseh Ikorodu City Actif 99 / 103 40% 11 24.10.2028 -
Matías Magdaleno Estudiantes Actif 107 / 110 40% 3 23.10.2028 -
Felipe Pujol Vélez Actif 108 / 124 40% 2 23.10.2028 -
Mateo Faure BATE Actif 99 / 95 40% 11 22.10.2028 -
Tobías Andrada River Plate Actif 118 / 126 40% 2 22.10.2028 -
Abdullahi Mohammad Kwara United Actif 90 / 97 40% 2 22.10.2028 -
Tiziano Perrotta Mirandés Actif 113 / 122 40% 3 22.10.2028 -
Jan Cedilnik Chikhura Actif 83 / 96 40% 1 21.10.2028 -
Tiago Rodríguez Central Norte Actif 76 / 84 40% 10 20.10.2028 -
Omar Bautista Gerez Central Córdoba SdE Actif 91 / 92 40% 7 20.10.2028 -
Julian Hall Real Salt Lake Actif 101 / 121 40% 6 20.10.2028 -
Peyton Miller New England Revolution Actif 113 / 113 40% 5 20.10.2028 -
Matías Córdoba Colón Actif 110 / 110 40% 2 20.10.2028 -
Ruben Ramos LA Galaxy Actif 104 / 120 40% 4 19.10.2028 -
Davinchi Getafe Actif 122 / 123 40% 3 19.10.2028 -
Franco Pinoni Alvarado Actif 95 / 97 40% 1 19.10.2028 -
Julián Bragado Morón Actif 87 / 91 40% 12 18.10.2028 -
Facundo Martínez Montevideo City Torque Actif 89 / 96 40% 6 18.10.2028 -
Jean Carlos Meneses Universitario Popayan Actif 81 / 81 40% 5 18.10.2028 -
Idris Ajiya Nasarawa United Actif 83 / 88 40% 4 18.10.2028 -
Giovanni Leoni Lincoln City Actif 154 / 158 40% 2 18.10.2028 -
Estanislao López Colón Actif 89 / 95 40% 5 17.10.2028 -
Buba Sangaré Elche Actif 132 / 133 40% 3 17.10.2028 -
Trey Nyoni Rotherham United Actif 140 / 147 40% 3 16.10.2028 -
Sebastian Rodriguez Houston Dynamo Actif 119 / 123 40% 9 16.10.2028 -
Valentino Huertas Morón Actif 107 / 107 40% 6 16.10.2028 -
James Moreno Cortulua Actif 86 / 99 40% 5 15.10.2028 -
Chimobi Igwilo Rangers International Actif 89 / 95 40% 10 15.10.2028 -
Nadir Sánchez Central Córdoba SdE Actif 103 / 107 40% 2 15.10.2028 -
Germán Barbas Racing Santander Actif 116 / 118 40% 1 15.10.2028 -
Samuel Molano Patriotas Actif 89 / 89 40% 1 15.10.2028 -
Roberto Medina La Equidad Actif 92 / 103 40% 5 13.10.2028 -
Francisco Machis Llaneros Actif 85 / 95 40% 5 13.10.2028 -
Ramiro Jara Racing Actif 93 / 96 40% 11 13.10.2028 -
Ivan Borges Defensores Actif 81 / 92 40% 3 13.10.2028 -
Leandro Milito Huesca Actif 101 / 105 40% 1 13.10.2028 -
Bachana Tsitaishvili Sapovnela Actif 91 / 84 40% 3 12.10.2028 -
Santino Coppola Kolkheti Actif 73 / 93 40% 2 12.10.2028 -
Manex Lozano Athletic Bilbao Actif 128 / 134 40% 1 12.10.2028 -
Tiago Gordillo San Miguel Actif 85 / 92 40% 7 11.10.2028 -
Nupe Godstime Bayelsa United Actif 96 / 102 40% 4 10.10.2028 -
Facundo Rodríguez Talleres Actif 94 / 100 40% 4 09.10.2028 -
Alex Verón Vélez Actif 119 / 127 40% 4 08.10.2028 -
Leenhan Romero Iquique Actif 92 / 96 40% 3 08.10.2028 -
Jorge Salinas Racing Santander Actif 133 / 135 40% 1 08.10.2028 -
Harry Gray Harrogate Town Actif 137 / 144 40% 2 06.10.2028 -
Seymour Reid New York City Actif 103 / 108 40% 1 06.10.2028 -
Matías Cantero All Boys Actif 91 / 102 40% 4 04.10.2028 -
Mateo Fofre Central Norte Actif 84 / 94 40% 6 03.10.2028 -
Juan Camilo Córdoba Deportivo Pereira Actif 86 / 94 40% 2 03.10.2028 -
Joaquín Varela Albion Actif 87 / 89 40% 2 03.10.2028 -
Muhammad Suleiman Katsina United Actif 85 / 86 40% 6 02.10.2028 -
Luis Yanes Real Cartagena Actif 89 / 95 40% 9 02.10.2028 -
Benjamín Rodríguez Albion Actif 90 / 89 40% 1 02.10.2028 -
Issa Hissein AS Etat Major Actif 65 / 67 40% 11 01.10.2028 -
Musa Malik Ikorodu City Actif 97 / 96 40% 3 01.10.2028 -
Franco Pulian Chacarita Juniors Actif 81 / 90 40% 1 01.10.2028 -
Benito Paklayan Alvarado Actif 86 / 86 40% 2 30.09.2028 -
Enzo Gariglio Naftan Actif 86 / 93 40% 3 30.09.2028 -
Mateo Elisseche Maipú Actif 76 / 83 40% 5 29.09.2028 -
Joaquín Núñez Llaneros Actif 68 / 76 40% 5 29.09.2028 -
Nahuel Maldonado Huracán Actif 97 / 104 40% 2 29.09.2028 -
Mateo Alcoba Albion Actif 87 / 98 40% 5 28.09.2028 -
Lautaro Díaz San Martín Actif 90 / 97 40% 3 23.09.2028 -
Abdoulaye Allamine Stars Jeunes Talents Actif 83 / 76 40% 3 23.09.2028 -
Óscar Hinojosa Metropolitanos Actif 84 / 89 40% 2 22.09.2028 -
Thiago D'Archivio Zulia Actif 82 / 91 40% 2 22.09.2028 -
Lionel Jara Central Córdoba SdE Actif 96 / 105 40% 5 22.09.2028 -
Lautaro Dufur Juventud Actif 102 / 111 40% 2 21.09.2028 -
Paolo Dorini Estudiantes de Merida Actif 95 / 95 40% 2 21.09.2028 -
Saleh Moustapha AS Algoy Actif 60 / 65 40% 3 21.09.2028 -
Facundo Balatti Penarol Actif 104 / 108 40% 1 20.09.2028 -
Benjamín Villarruel Chikhura Actif 84 / 80 40% 2 17.09.2028 -
D'Hidier Pereira San Marcos de Arica Actif 88 / 87 40% 1 17.09.2028 -
Andres Casseres Llaneros Actif 69 / 76 40% 4 16.09.2028 -
Hosea Michael Remo Stars Actif 88 / 89 40% 3 16.09.2028 -
Tobías Ramírez River Plate Actif 133 / 138 40% 5 13.09.2028 -
Luca Campagnaro Colón Actif 91 / 99 40% 1 12.09.2028 -
Léo Llaneros Actif 84 / 81 40% 2 11.09.2028 -
Cayetano Santarelli BATE Actif 88 / 86 40% 1 11.09.2028 -
Ignacio Fernandes Molodechno Actif 80 / 78 40% 2 10.09.2028 -
Samuel Córdoba Depor Actif 84 / 95 40% 1 09.09.2028 -
Felipe Karabulut Gimnasia y Tiro Actif 97 / 106 40% 1 08.09.2028 -
Jaider Pérez Llaneros Actif 90 / 90 40% 1 07.09.2028 -
Agustín Medina Lanús Actif 117 / 129 40% 1 06.09.2028 -
Anderson Acevedo Bogota Actif 87 / 94 40% 2 05.09.2028 -
Madaoua Tchiva CotonTchad Actif 86 / 83 40% 1 05.09.2028 -
Lucas Camejo River Plate Actif 83 / 86 40% 4 01.09.2028 -
Ishmael Addo Heart of Lions Actif 96 / 99 40% 1 01.09.2028 -
Mateo Caballero Defensor Sporting Actif 99 / 102 40% 2 31.08.2028 -
Yahor Ihnatovich Lokomotiv Gomel Actif 62 / 56 40% 1 31.08.2028 -
Nana Nuhu WAFA Actif 102 / 103 40% 3 30.08.2028 -
Pablo Lago Juventud Actif 105 / 110 40% 1 29.08.2028 -
Darwin Pérez Metropolitanos Actif 85 / 90 40% 1 29.08.2028 -
Francisco Arias Gimnasia y Esgrima Actif 91 / 97 40% 2 27.08.2028 -
Nicolás Barros Schelotto Gimnasia La Plata Actif 124 / 125 40% 1 27.08.2028 -
Luis Carrero Zamora Actif 93 / 102 40% 1 27.08.2028 -
Joseph Abah Remo Stars Actif 89 / 96 40% 2 26.08.2028 -
Juan Rodríguez Cerro Largo Actif 99 / 101 40% 1 26.08.2028 -
Darlvin Yeboah Bechem United Actif 89 / 104 40% 1 24.08.2028 -
Otto Stange Borussia Mönchengladbach Actif 135 / 128 40% 8 23.08.2028 -
Abubakar Adams Aduana Stars Actif 86 / 89 40% 3 23.08.2028 -
Axel Tape Bayer Leverkusen Actif 139 / 141 40% 1 19.08.2028 -
Cristian Carrara Guidonia Montecelio Actif 114 / 119 40% 7 17.08.2028 -
Idrissa Guèye Virtus Entella Actif 129 / 128 40% 6 17.08.2028 -
Facundo González San Telmo Actif 78 / 87 40% 1 16.08.2028 -
Juan Cortés Real Sociedad Actif 65 / 87 40% 1 16.08.2028 -
Alen Vukaj Alcione Milano Actif 105 / 100 40% 2 15.08.2028 -
Rahul Sharma Pontedera Actif 98 / 108 40% 2 13.08.2028 -
Kwesi Sorotu Badori Berekum Chelsea Actif 98 / 110 40% 1 13.08.2028 -
Axel Pedrozo Almagro Actif 87 / 91 40% 1 12.08.2028 -
Andrea Luongo Trento Actif 96 / 102 40% 2 10.08.2028 -
Diego Vargas Universidad de Concepcion Actif 100 / 105 40% 2 10.08.2028 -
Nicolás Ferreira Artigas Actif 79 / 86 40% 1 10.08.2028 -
Luca Williams-Barnett Walsall Actif 125 / 134 40% 8 09.08.2028 -
Jan Bürger Northampton Town Actif 121 / 122 40% 4 08.08.2028 -
Luke Brooke-Smith Chesterfield Actif 109 / 105 40% 3 08.08.2028 -
Amin Nabizada Exeter City Actif 120 / 124 40% 1 08.08.2028 -
Gabriel Mec Feirense Actif 130 / 145 40% 1 07.08.2028 -
Dânio Djassi Portimonense Actif 123 / 134 40% 1 07.08.2028 -
Dylan Moody Cheltenham Town Actif 120 / 132 40% 9 12.07.2028 -
Duván Córdoba Jaguares Actif 99 / 95 40% 3 12.07.2028 -
Bark Abdramane AS PSI Actif 80 / 90 40% 1 12.07.2028 -
Amine Boukamir Charleroi Actif 98 / 120 40% 1 04.07.2028 -
José Quevedo Tigres Actif 84 / 85 40% 2 07.06.2028 -
Júnior Gamarra General Diaz Actif 90 / 95 30% 1 / 1m 07.06.2028 -
Jeremías Robledo Acosta Newell's Old Boys Actif 89 / 94 40% 1 07.06.2028 -
Luca Meirelles Kudrivka Actif 121 / 128 40% 7 31.05.2028 -
Lamine Bèye Portimonense Actif 119 / 115 40% 1 31.05.2028 -
Tobiáš Pališčák Zlin Actif 102 / 119 40% 1 31.05.2028 -
André Miranda Porto Actif 118 / 113 40% 1 31.05.2028 -
Francisco Souza Silva Feirense Actif 111 / 120 40% 1 31.05.2028 -
Tobías Pantoja Central Norte Actif 105 / 109 40% 4 30.05.2028 -
Lamin Sillah Exeter City Actif 108 / 107 40% 4 30.05.2028 -
Ramiro Buratti River Plate Actif 90 / 104 40% 1 30.05.2028 -
Valentín Motta Independiente Actif 85 / 97 40% 1 30.05.2028 -
Sam Proctor Salford City Actif 130 / 131 40% 13 29.05.2028 -
Danilo Monza Sarmiento Actif 102 / 105 40% 2 29.05.2028 -
Manuel Pereyra Tigre Actif 87 / 101 40% 2 29.05.2028 -
Ryan Oné Sheffield United Actif 126 / 129 40% 4 28.05.2028 -
Felipe Igón Racing Club Actif 101 / 115 40% 2 27.05.2028 -
Thiago Parga Huracán Actif 94 / 111 40% 2 26.05.2028 -
Renato Ardissono San Lorenzo Actif 88 / 100 40% 2 26.05.2028 -
Gerardo Díaz San Martín SJ Actif 109 / 110 40% 3 25.05.2028 -
Jorge Sánchez Carabobo Actif 93 / 104 40% 4 25.05.2028 -
Fletcher Boyd Accrington Stanley Actif 104 / 111 40% 3 25.05.2028 -
Alfredo Torres Universitario Popayan Actif 54 / 62 40% 1 25.05.2028 -
Jack Wint Sibenik Actif 110 / 110 40% 8 22.05.2028 -
Leonardo Sosa Rosario Central Actif 101 / 110 40% 1 22.05.2028 -
Jake Evans Crewe Alexandra Actif 104 / 119 40% 1 20.05.2028 -
Francisco Ventre Huracán Actif 81 / 103 40% 1 19.05.2028 -
Lucas Wolfert Racing Club Actif 104 / 104 40% 1 19.05.2028 -
Agustín Reynoso Boca Juniors Actif 85 / 99 40% 1 17.05.2028 -
Patricio Flores Defensa y Justicia Actif 90 / 96 40% 2 16.05.2028 -
Ayoub Akabou Ceuta Actif 106 / 105 40% 2 15.05.2028 -
Nikolay Tyulenev Nosta Actif 63 / 81 40% 2 15.05.2028 -
Jamal Iddrissou Pergolettese Actif 109 / 109 40% 2 15.05.2028 -
Alejandro Gutiérrez Mineros de Guayana Actif 90 / 97 40% 3 14.05.2028 -
Nathan Mbala FC Metz Actif 111 / 107 40% 2 14.05.2028 -
Baba N'Diaye Chaika Actif 91 / 87 40% 1 14.05.2028 -
Yojan Garcés America de Cali Actif 125 / 128 40% 1 14.05.2028 -
Joel Abregu Temperley Actif 92 / 95 40% 3 13.05.2028 -
Thiago Perruisset Boca Juniors Actif 101 / 101 40% 1 13.05.2028 -
Román Colo All Boys Actif 85 / 101 40% 1 12.05.2028 -
Yurdy Ramos Real Santander Actif 91 / 89 40% 1 09.05.2028 -
Máximo Casalnuovo Morón Actif 87 / 99 40% 2 08.05.2028 -
Rémi Himbert AC Ajaccio Actif 106 / 127 40% 1 08.05.2028 -
Fernando Bravo Almería Actif 109 / 109 40% 4 07.05.2028 -
Vincenzo Damiano Atalanta Actif 105 / 121 40% 5 07.05.2028 -
Kaye Furo Reading Actif 132 / 123 40% 2 06.05.2028 -
Samuel Atehortúa Deportivo Pereira Actif 82 / 87 40% 3 05.05.2028 -
Martín D'Aurizio Huracán Actif 96 / 109 40% 2 04.05.2028 -
Ignacio Roldán Lanús Actif 93 / 100 40% 1 04.05.2028 -
Facundo Binzugna Boca Juniors Actif 95 / 103 40% 1 03.05.2028 -
Agustín Nogueira Barracas Central Actif 94 / 100 40% 1 03.05.2028 -
Emanuel Bonda Argentinos Juniors Actif 92 / 97 40% 1 03.05.2028 -
Lisandro Tejada San Martín SJ Actif 93 / 104 40% 3 01.05.2028 -
Alejandro Rojo Deportivo Cali Actif 86 / 100 40% 2 01.05.2028 -
Dylan Martínez River Plate Actif 97 / 101 40% 1 01.05.2028 -
Lisandro Musso Central Córdoba SdE Actif 89 / 97 40% 2 28.04.2028 -
Ignacio Cardozo Vélez Actif 103 / 99 40% 1 28.04.2028 -
Nicolás Casa Barranquilla Actif 86 / 94 40% 1 27.04.2028 -
Agustín Martínez Cádiz Actif 102 / 108 40% 2 26.04.2028 -
Francisco Valdés Universidad Catolica Actif 90 / 101 40% 1 26.04.2028 -
Lionel Madriaga Belgrano Actif 91 / 101 40% 1 25.04.2028 -
Eduard Ihnatov Ospitaletto Actif 91 / 98 40% 1 23.04.2028 -
Dilan Neves Benfica Actif 88 / 95 40% 1 23.04.2028 -
Máximo Núñez Los Andes Actif 94 / 107 40% 1 23.04.2028 -
Ulíses López Barracas Central Actif 97 / 102 40% 1 22.04.2028 -
Louis Zecevic-John Colchester United Actif 102 / 102 40% 1 21.04.2028 -
Alfonso Álvarez Ferro Carril Oeste Actif 95 / 96 40% 2 20.04.2028 -
João Tavares Porto Actif 81 / 76 40% 2 17.04.2028 -
Robert Cook Accrington Stanley Actif 102 / 105 40% 2 11.04.2028 -
Igor Tyjon Barrow AFC Actif 125 / 122 40% 2 11.04.2028 -
Thiago Nahuel Independiente Actif 96 / 98 40% 1 11.04.2028 -
Anas Alaoui Lecco Actif 103 / 103 40% 1 11.04.2028 -
Emiliano Zacca Deportivo Riestra Actif 95 / 109 40% 2 10.04.2028 -
Juan Álvarez Argentinos Juniors Actif 94 / 93 40% 1 08.04.2028 -
Nazif Inoussa Benfica Actif 83 / 94 40% 2 06.04.2028 -
Elion Krosa Odd Actif 87 / 103 40% 1 05.04.2028 -
Lautaro Vera Platense Actif 103 / 107 40% 1 04.04.2028 -
Daniel Johan Skaarud Sandefjord Actif 103 / 102 40% 1 04.04.2028 -
Yegor Koshkin Pobeda Actif 92 / 86 40% 3 01.04.2028 -
Gabriel Maureira Colo-Colo Actif 86 / 97 40% 1 01.04.2028 -
Santino Bacciadone Banfield Actif 91 / 89 40% 1 23.03.2028 -
Tomás Báez Boca Juniors Actif 94 / 95 40% 1 23.03.2028 -
Valentín Perroud Boca Juniors Actif 89 / 89 40% 2 22.03.2028 -
Walter Molina Defensa y Justicia Actif 96 / 97 40% 1 20.03.2028 -
Ignacio Fernández Boston River Actif 89 / 101 40% 2 27.12.2027 -
Esquerdinha Notts County Actif 119 / 124 40% 1 27.12.2027 -
Daniel Idoko Ikorodu City Actif 88 / 102 40% 1 27.12.2027 -
Yury Oyarzo Racing Actif 97 / 98 40% 1 03.12.2027 -
Luis Abreu Olimpia Actif 90 / 101 69% 1 01.12.2027 Approuver
Ander Astralaga Newcastle United Actif 146 / 148 40% 1 30.11.2027 -
Frankarlos Benítez Caracas Actif 113 / 114 40% 1 30.11.2027 -
Joe Whitworth Wigan Athletic Actif 113 / 117 40% 1 30.11.2027 -
Matteo Rizzo Cosenza Actif 112 / 103 40% 1 01.06.2027 -
Edmund Afful Hasaacas Actif 91 / 86 40% 1 01.06.2027 -
Sascha Britschgi AC Milan Actif 117 / 131 40% 2 30.05.2027 -
Martim Cunha Porto Actif 111 / 115 40% 1 30.05.2027 -
Ali Ahmed Norwich City Actif 113 / 132 40% 3 29.05.2027 -
Filip Marschall Stevenage Actif 109 / 119 40% 2 29.05.2027 -
Alex Robertson Cardiff City Actif 131 / 114 40% 1 29.05.2027 -
Josh Keeley Luton Town Actif 135 / 130 40% 1 29.05.2027 -
Juan Diego Perdomo Depor Actif 88 / 93 40% 1 28.05.2027 -
Nathan Broadhead Wrexham Actif 121 / 131 40% 2 27.05.2027 -
Mikey Johnston West Bromwich Albion Actif 121 / 125 40% 1 27.05.2027 -
Jack Diamond Stockport County Actif 128 / 119 40% 1 27.05.2027 -
Andrea Bertoncini Triestina Actif 88 / 88 40% 1 27.05.2027 -
Chari Giwa US Bougouni Actif 81 / 83 40% 1 25.05.2027 -
Isaiah Jones Luton Town Actif 121 / 117 40% 3 24.05.2027 -
Alessio Zerbin Frosinone Actif 134 / 136 40% 2 24.05.2027 -
Zane Albarus Shrewsbury Town Actif 102 / 113 40% 1 24.05.2027 -
Malik Mothersille Stockport County Actif 123 / 122 40% 4 23.05.2027 -
Ludovico Del Sorbo Sorrento Actif 112 / 99 40% 3 23.05.2027 -
Alfie Doughty Millwall Actif 119 / 127 40% 1 23.05.2027 -
Strahinja Manojlović Radnicki Nis Actif 118 / 118 40% 1 23.05.2027 -
Job Ochieng Real Sociedad Actif 107 / 97 40% 2 21.05.2027 -
Dennis Cirkin Queens Park Rangers Actif 118 / 136 40% 1 21.05.2027 -
Gladson Amoah Liberty Professionals Actif 101 / 91 40% 1 20.05.2027 -
Francesco D'Alterio Ternana Actif 100 / 118 40% 1 20.05.2027 -
Ezra Mayers West Ham United Actif 127 / 130 40% 1 19.05.2027 -
Miguel Figueiredo Benfica Actif 103 / 111 40% 1 17.05.2027 -
Rhys Walters Port Vale Actif 102 / 101 40% 1 17.05.2027 -
Sławomir Abramowicz Jagiellonia Actif 115 / 118 40% 1 15.05.2027 -
Tiago Freitas Benfica Actif 108 / 117 40% 2 14.05.2027 -
Bence Dárdai VfL Wolfsburg Actif 129 / 130 40% 1 14.05.2027 -
Jason Knight Bristol City Actif 138 / 135 40% 2 11.05.2027 -
Cesare Galeotti Trapani Actif 99 / 109 40% 1 10.05.2027 -
Sheyi Ojo Crewe Alexandra Actif 110 / 97 40% 4 08.05.2027 -
Leandro Martins Benfica Actif 105 / 100 40% 1 08.05.2027 -
Joel Bagan Cardiff City Actif 106 / 127 40% 1 07.05.2027 -
Gonçalo Oliveira Benfica Actif 116 / 127 40% 1 06.05.2027 -
Kazunari Kita Real Sociedad Actif 105 / 114 40% 1 06.05.2027 -
Oladapo Afolayan Blackburn Rovers Actif 116 / 112 40% 2 04.05.2027 -
Nicolás Muscio AFC Wimbledon Actif 94 / 111 40% 1 04.05.2027 -
Justo Giani Umraniyespor Actif 117 / 129 40% 5 02.05.2027 -
Daniel Kyerewaa Reading Actif 120 / 115 40% 2 30.04.2027 -
Ilyas Ansah Hull City Actif 124 / 130 40% 1 30.04.2027 -
Jackson Muleka Konyaspor Actif 121 / 118 40% 1 25.04.2027 -
Othmane Maamma Watford Actif 118 / 137 40% 1 23.04.2027 -
Alex Lowry Wycombe Wanderers Actif 126 / 115 40% 1 22.04.2027 -
Ekain Orobengoa Real Sociedad Actif 95 / 110 40% 1 22.04.2027 -
Killian Cahill Leyton Orient Actif 109 / 122 40% 1 20.04.2027 -
Rocco Vata Watford Actif 114 / 125 40% 2 19.04.2027 -
Bosun Lawal Stoke City Actif 115 / 129 40% 1 14.04.2027 -
Cian Ashford Cardiff City Actif 118 / 130 40% 2 12.04.2027 -
Joe Gelhardt Hull City Actif 126 / 120 40% 1 05.04.2027 -
Lander Astiazarán Real Sociedad Actif 114 / 118 40% 1 31.03.2027 -
Tahith Chong Sheffield United Actif 115 / 124 40% 1 28.03.2027 -
Pelle Mattsson Norwich City Actif 135 / 114 40% 1 28.03.2027 -
Lautaro Calderón Asante Kotoko Actif 96 / 102 40% 1 25.03.2027 -
Sam Greenwood Bristol City Actif 116 / 121 40% 1 22.03.2027 -
Mateo Jara Sportivo Luqueno Actif 71 / 81 62% 1 21.12.2026 Approuver
Harry Clarke Preston Actif 113 / 142 40% 1 30.11.2026 -
Brooke Norton-Cuffy Hull City Actif 147 / 137 40% 1 26.11.2026 -
Manu Morlanes Mallorca Actif 136 / 144 40% 1 26.11.2026 -
Florentino Luís Ipswich Town Actif 147 / 151 40% 1 23.11.2026 -
Max Bird Birmingham Actif 143 / 122 40% 1 20.11.2026 -
Lewis Gibson Preston Actif 134 / 134 40% 1 20.11.2026 -
Sandi Zajc NK Domzale Actif 93 / 102 40% 1 18.10.2026 -
Ranko Veselinović Vancouver Whitecaps Actif 133 / 131 40% 1 18.10.2026 -
Sebastián Miño Patronato Actif 85 / 74 40% 1 04.08.2026 -